Weather observations for the past three days for
Wall Blake Airport
Metric (Imperial)
Date Time (ast) Wind (kph) Vis. (km) Weather Sky Cond. Temperature (ºC) Relative Humidity Wind Chill (°C) Heat Index (°C) Pressure Precipitation (cm)
Air Dwpt 6 hour altimeter (cm) sea level (mb) 1 hr 3 hr 6 hr
Max. Min.
02 16:00 E 22 0.00 A Few Clouds FEW019 28 22 70% 31 0 0.0
02 15:00 E 22 0.00 A Few Clouds FEW021 28 22 70% 31 0 0.0
02 14:00 SE 22 0.00 A Few Clouds FEW021 29 22 66% 32 0 0.0
02 13:00 E 26 0.00 A Few Clouds FEW020 28 23 74% 31 0 0.0
02 12:00 E 22 0.00 A Few Clouds FEW020 29 22 66% 32 0 0.0
02 11:00 E 24 0.00 A Few Clouds FEW020 29 22 66% 32 0 0.0
02 10:00 E 22 0.00 Partly Cloudy SCT019 28 22 70% 31 0 0.0
02 09:00 E 19 0.00 A Few Clouds FEW018 26 25 94% 28 0 0.0
02 08:00 E 19 0.00 Partly Cloudy SCT018 27 22 74% 29 0 0.0
02 07:00 E 11 0.00 Partly Cloudy SCT018 25 23 89% 26 0 0.0
01 19:00 E 11 0.00 A Few Clouds FEW018 27 22 74% 29 0 0.0
01 18:00 E 13 0.00 A Few Clouds FEW018 27 22 74% 29 0 0.0
01 17:00 E 13 0.00 A Few Clouds FEW019 27 22 74% 29 0 0.0
01 16:00 E 15 0.00 A Few Clouds FEW020 27 22 74% 29 0 0.0
01 15:00 SE 17 0.00 A Few Clouds FEW020 28 22 70% 31 0 0.0
01 14:00 E 17 0.00 A Few Clouds FEW020 28 22 70% 31 0 0.0
01 13:00 SE 17 0.00 A Few Clouds FEW019 28 22 70% 31 0 0.0
01 12:00 E 17 0.00 A Few Clouds FEW019 28 22 70% 31 0 0.0
01 11:00 E 17 0.00 A Few Clouds FEW019 28 22 70% 31 0 0.0
01 10:00 SE 19 0.00 A Few Clouds FEW019 28 22 70% 31 0 0.0
01 09:00 SE 17 0.00 A Few Clouds FEW018 27 23 79% 30 0 0.0
01 08:00 SE 11 0.00 A Few Clouds FEW018 27 23 79% 30 0 0.0
01 07:00 SE 15 0.00 Partly Cloudy FEW019 SCT034 25 25 100% 25 0 0.0
30 19:00 E 11 0.00 A Few Clouds FEW018 27 22 74% 29 0 0.0
30 18:00 E 13 0.00 A Few Clouds FEW018 27 23 79% 30 0 0.0
30 17:00 SE 19 0.00 A Few Clouds FEW019 28 23 74% 31 0 0.0
30 16:00 SE 19 0.00 A Few Clouds FEW019 28 22 70% 31 0 0.0
30 15:00 SE 19 0.00 A Few Clouds FEW019 28 22 70% 31 0 0.0
30 14:00 SE 15 0.00 A Few Clouds FEW019 28 22 70% 31 0 0.0
30 13:00 SE 15 0.00 A Few Clouds FEW019 28 23 74% 31 0 0.0
30 12:00 SE 19 0.00 A Few Clouds FEW019 28 22 70% 31 0 0.0
30 11:00 SE 17 0.00 A Few Clouds FEW020 28 22 70% 31 0 0.0
30 10:00 SE 19 0.00 A Few Clouds FEW020 28 22 70% 31 0 0.0
30 09:00 SE 15 0.00 Partly Cloudy SCT019 27 22 74% 29 0 0.0
30 08:00 SE 17 0.00 Partly Cloudy SCT019 27 22 74% 29 0 0.0
30 07:00 SE 15 0.00 A Few Clouds FEW019 27 22 74% 29 0 0.0
29 19:00 E 11 0.00 A Few Clouds FEW018 27 22 74% 29 0 0.0
29 18:00 E 11 0.00 A Few Clouds FEW020 27 22 74% 29 0 0.0
29 17:00 E 13 0.00 A Few Clouds FEW019 28 22 70% 31 0 0.0
Date Time (ast) Wind (kph) Vis. (km) Weather Sky Cond. Air Dwpt Max. Min. Relative Humidity Wind Chill (°C) Heat Index (°C) altimeter (cm) sea level (mb) 1 hr 3 hr 6 hr
6 hour
Temperature (ºC) Pressure Precipitation (cm)